sensor_id;sensor_type;location;lat;lon;timestamp;P1;durP1;ratioP1;P2;durP2;ratioP2
67712;SDS011;67640;55.784;49.138;2023-02-12T00:02:40;12.60;;;4.27;;
67712;SDS011;67640;55.784;49.138;2023-02-12T00:07:45;12.28;;;4.75;;
67712;SDS011;67640;55.784;49.138;2023-02-12T00:13:03;18.30;;;5.72;;
67712;SDS011;67640;55.784;49.138;2023-02-12T00:18:09;17.87;;;5.60;;
67712;SDS011;67640;55.784;49.138;2023-02-12T00:23:26;16.87;;;4.83;;
67712;SDS011;67640;55.784;49.138;2023-02-12T00:28:31;19.45;;;5.90;;
67712;SDS011;67640;55.784;49.138;2023-02-12T00:33:51;19.02;;;6.45;;
67712;SDS011;67640;55.784;49.138;2023-02-12T00:38:58;15.30;;;5.83;;
67712;SDS011;67640;55.784;49.138;2023-02-12T00:44:17;20.05;;;6.58;;
67712;SDS011;67640;55.784;49.138;2023-02-12T00:49:36;16.97;;;5.97;;
67712;SDS011;67640;55.784;49.138;2023-02-12T00:54:42;18.42;;;6.33;;
67712;SDS011;67640;55.784;49.138;2023-02-12T01:00:01;20.92;;;6.45;;
67712;SDS011;67640;55.784;49.138;2023-02-12T01:05:08;17.07;;;6.10;;
67712;SDS011;67640;55.784;49.138;2023-02-12T01:10:25;22.00;;;6.78;;
67712;SDS011;67640;55.784;49.138;2023-02-12T01:15:29;21.05;;;6.70;;
67712;SDS011;67640;55.784;49.138;2023-02-12T01:20:48;20.30;;;5.93;;
67712;SDS011;67640;55.784;49.138;2023-02-12T01:25:53;12.07;;;5.97;;
67712;SDS011;67640;55.784;49.138;2023-02-12T01:31:14;13.37;;;4.57;;
67712;SDS011;67640;55.784;49.138;2023-02-12T01:36:19;16.80;;;6.00;;
67712;SDS011;67640;55.784;49.138;2023-02-12T01:41:39;24.35;;;7.40;;
67712;SDS011;67640;55.784;49.138;2023-02-12T01:46:46;16.03;;;5.83;;
67712;SDS011;67640;55.784;49.138;2023-02-12T01:57:30;17.95;;;5.15;;
67712;SDS011;67640;55.784;49.138;2023-02-12T02:08:29;19.70;;;5.65;;
67712;SDS011;67640;55.784;49.138;2023-02-12T02:13:35;25.48;;;7.10;;
67712;SDS011;67640;55.784;49.138;2023-02-12T02:19:02;21.02;;;7.17;;
67712;SDS011;67640;55.784;49.138;2023-02-12T02:29:50;21.20;;;5.95;;
67712;SDS011;67640;55.784;49.138;2023-02-12T02:35:13;21.87;;;6.93;;
67712;SDS011;67640;55.784;49.138;2023-02-12T02:45:58;20.10;;;5.95;;
67712;SDS011;67640;55.784;49.138;2023-02-12T02:56:44;16.07;;;5.60;;
67712;SDS011;67640;55.784;49.138;2023-02-12T03:07:29;21.77;;;6.80;;
67712;SDS011;67640;55.784;49.138;2023-02-12T03:18:29;21.02;;;7.17;;
67712;SDS011;67640;55.784;49.138;2023-02-12T03:29:13;17.02;;;6.47;;
67712;SDS011;67640;55.784;49.138;2023-02-12T03:40:32;20.93;;;5.30;;
67712;SDS011;67640;55.784;49.138;2023-02-12T03:45:57;21.90;;;5.87;;
67712;SDS011;67640;55.784;49.138;2023-02-12T03:50:50;13.28;;;3.80;;
67712;SDS011;67640;55.784;49.138;2023-02-12T03:56:09;18.48;;;6.28;;
67712;SDS011;67640;55.784;49.138;2023-02-12T04:01:13;21.80;;;7.03;;
67712;SDS011;67640;55.784;49.138;2023-02-12T04:06:32;16.60;;;6.57;;
67712;SDS011;67640;55.784;49.138;2023-02-12T04:33:46;22.90;;;6.77;;
67712;SDS011;67640;55.784;49.138;2023-02-12T04:44:32;24.60;;;9.00;;
67712;SDS011;67640;55.784;49.138;2023-02-12T04:49:37;21.70;;;7.37;;
67712;SDS011;67640;55.784;49.138;2023-02-12T04:54:42;23.62;;;7.72;;
67712;SDS011;67640;55.784;49.138;2023-02-12T05:00:00;19.23;;;6.37;;
67712;SDS011;67640;55.784;49.138;2023-02-12T05:05:05;25.10;;;8.03;;
67712;SDS011;67640;55.784;49.138;2023-02-12T05:10:24;20.30;;;7.58;;
67712;SDS011;67640;55.784;49.138;2023-02-12T05:15:28;25.23;;;7.20;;
67712;SDS011;67640;55.784;49.138;2023-02-12T05:26:30;21.42;;;7.00;;
67712;SDS011;67640;55.784;49.138;2023-02-12T05:37:12;29.48;;;7.80;;
67712;SDS011;67640;55.784;49.138;2023-02-12T05:42:17;22.02;;;7.33;;
67712;SDS011;67640;55.784;49.138;2023-02-12T05:47:36;25.77;;;7.73;;
67712;SDS011;67640;55.784;49.138;2023-02-12T05:52:55;23.67;;;8.48;;
67712;SDS011;67640;55.784;49.138;2023-02-12T05:58:14;25.92;;;8.43;;
67712;SDS011;67640;55.784;49.138;2023-02-12T06:03:33;25.52;;;8.20;;
67712;SDS011;67640;55.784;49.138;2023-02-12T06:08:38;20.72;;;7.95;;
67712;SDS011;67640;55.784;49.138;2023-02-12T06:13:44;21.00;;;7.40;;
67712;SDS011;67640;55.784;49.138;2023-02-12T06:19:03;30.43;;;9.13;;
67712;SDS011;67640;55.784;49.138;2023-02-12T06:29:30;21.00;;;6.42;;
67712;SDS011;67640;55.784;49.138;2023-02-12T06:34:35;21.20;;;8.23;;
67712;SDS011;67640;55.784;49.138;2023-02-12T06:39:40;21.35;;;7.92;;
67712;SDS011;67640;55.784;49.138;2023-02-12T06:44:59;24.05;;;7.87;;
67712;SDS011;67640;55.784;49.138;2023-02-12T06:50:18;28.67;;;9.03;;
67712;SDS011;67640;55.784;49.138;2023-02-12T06:55:39;30.45;;;9.98;;
67712;SDS011;67640;55.784;49.138;2023-02-12T07:06:30;29.30;;;9.77;;
67712;SDS011;67640;55.784;49.138;2023-02-12T07:16:59;25.95;;;8.08;;
67712;SDS011;67640;55.784;49.138;2023-02-12T07:22:05;27.90;;;10.50;;
67712;SDS011;67640;55.784;49.138;2023-02-12T07:27:24;26.97;;;8.70;;
67712;SDS011;67640;55.784;49.138;2023-02-12T07:32:43;32.45;;;9.45;;
67712;SDS011;67640;55.784;49.138;2023-02-12T07:38:09;32.53;;;10.03;;
67712;SDS011;67640;55.784;49.138;2023-02-12T07:43:28;27.30;;;8.25;;
67712;SDS011;67640;55.784;49.138;2023-02-12T07:48:32;22.17;;;7.43;;
67712;SDS011;67640;55.784;49.138;2023-02-12T07:58:58;17.40;;;6.65;;
67712;SDS011;67640;55.784;49.138;2023-02-12T08:04:20;32.67;;;11.30;;
67712;SDS011;67640;55.784;49.138;2023-02-12T08:09:27;23.20;;;7.80;;
67712;SDS011;67640;55.784;49.138;2023-02-12T08:14:46;28.38;;;9.43;;
67712;SDS011;67640;55.784;49.138;2023-02-12T08:20:05;30.63;;;9.83;;
67712;SDS011;67640;55.784;49.138;2023-02-12T08:25:24;29.12;;;9.03;;
67712;SDS011;67640;55.784;49.138;2023-02-12T08:30:43;29.13;;;9.17;;
67712;SDS011;67640;55.784;49.138;2023-02-12T08:35:49;25.37;;;7.47;;
67712;SDS011;67640;55.784;49.138;2023-02-12T08:46:48;29.23;;;9.27;;
67712;SDS011;67640;55.784;49.138;2023-02-12T08:52:07;31.93;;;10.20;;
67712;SDS011;67640;55.784;49.138;2023-02-12T08:57:26;26.60;;;9.03;;
67712;SDS011;67640;55.784;49.138;2023-02-12T09:02:47;20.48;;;7.53;;
67712;SDS011;67640;55.784;49.138;2023-02-12T09:08:06;26.40;;;8.23;;
67712;SDS011;67640;55.784;49.138;2023-02-12T09:13:11;26.37;;;9.13;;
67712;SDS011;67640;55.784;49.138;2023-02-12T09:18:31;18.10;;;6.20;;
67712;SDS011;67640;55.784;49.138;2023-02-12T09:23:50;25.93;;;9.37;;
67712;SDS011;67640;55.784;49.138;2023-02-12T09:29:09;30.75;;;10.28;;
67712;SDS011;67640;55.784;49.138;2023-02-12T09:34:28;31.20;;;8.50;;
67712;SDS011;67640;55.784;49.138;2023-02-12T09:39:33;25.30;;;8.07;;
67712;SDS011;67640;55.784;49.138;2023-02-12T10:01:32;23.70;;;8.30;;
67712;SDS011;67640;55.784;49.138;2023-02-12T10:12:19;23.83;;;8.48;;
67712;SDS011;67640;55.784;49.138;2023-02-12T10:23:20;19.60;;;7.47;;
67712;SDS011;67640;55.784;49.138;2023-02-12T10:34:05;16.15;;;4.25;;
67712;SDS011;67640;55.784;49.138;2023-02-12T10:44:47;12.15;;;3.45;;
67712;SDS011;67640;55.784;49.138;2023-02-12T10:55:33;17.90;;;7.00;;
67712;SDS011;67640;55.784;49.138;2023-02-12T11:00:40;17.95;;;6.70;;
67712;SDS011;67640;55.784;49.138;2023-02-12T11:11:45;18.10;;;6.17;;
67712;SDS011;67640;55.784;49.138;2023-02-12T11:17:04;19.45;;;6.53;;
67712;SDS011;67640;55.784;49.138;2023-02-12T11:22:23;19.73;;;6.47;;
67712;SDS011;67640;55.784;49.138;2023-02-12T11:27:38;20.43;;;7.53;;
67712;SDS011;67640;55.784;49.138;2023-02-12T11:32:42;23.77;;;6.83;;
67712;SDS011;67640;55.784;49.138;2023-02-12T11:37:59;21.80;;;6.80;;
67712;SDS011;67640;55.784;49.138;2023-02-12T11:43:05;20.47;;;7.40;;
67712;SDS011;67640;55.784;49.138;2023-02-12T11:53:50;24.98;;;8.05;;
67712;SDS011;67640;55.784;49.138;2023-02-12T11:58:55;20.40;;;6.97;;
67712;SDS011;67640;55.784;49.138;2023-02-12T12:04:15;17.03;;;6.70;;
67712;SDS011;67640;55.784;49.138;2023-02-12T12:20:35;25.95;;;6.90;;
67712;SDS011;67640;55.784;49.138;2023-02-12T12:25:54;18.15;;;6.60;;
67712;SDS011;67640;55.784;49.138;2023-02-12T13:14:54;17.40;;;6.63;;
67712;SDS011;67640;55.784;49.138;2023-02-12T13:31:30;23.60;;;7.20;;
67712;SDS011;67640;55.784;49.138;2023-02-12T13:36:37;23.50;;;7.92;;
67712;SDS011;67640;55.784;49.138;2023-02-12T13:41:44;21.53;;;7.63;;
67712;SDS011;67640;55.784;49.138;2023-02-12T14:03:28;23.83;;;8.37;;
67712;SDS011;67640;55.784;49.138;2023-02-12T14:08:36;27.35;;;8.43;;
67712;SDS011;67640;55.784;49.138;2023-02-12T14:24:56;19.27;;;6.05;;
67712;SDS011;67640;55.784;49.138;2023-02-12T15:14:19;27.70;;;9.90;;
67712;SDS011;67640;55.784;49.138;2023-02-12T15:30:34;28.65;;;9.58;;
67712;SDS011;67640;55.784;49.138;2023-02-12T15:35:53;26.97;;;9.43;;
67712;SDS011;67640;55.784;49.138;2023-02-12T15:46:37;23.83;;;8.05;;
67712;SDS011;67640;55.784;49.138;2023-02-12T15:51:43;28.53;;;9.83;;
67712;SDS011;67640;55.784;49.138;2023-02-12T15:57:00;31.57;;;9.48;;
67712;SDS011;67640;55.784;49.138;2023-02-12T16:02:15;27.05;;;9.08;;
67712;SDS011;67640;55.784;49.138;2023-02-12T16:07:28;17.20;;;6.03;;
67712;SDS011;67640;55.784;49.138;2023-02-12T16:12:49;22.98;;;8.20;;
67712;SDS011;67640;55.784;49.138;2023-02-12T16:17:54;22.17;;;8.58;;
67712;SDS011;67640;55.784;49.138;2023-02-12T16:23:13;17.95;;;6.47;;
67712;SDS011;67640;55.784;49.138;2023-02-12T16:28:32;24.92;;;9.20;;
67712;SDS011;67640;55.784;49.138;2023-02-12T16:39:39;21.73;;;8.90;;
67712;SDS011;67640;55.784;49.138;2023-02-12T16:44:37;27.50;;;9.00;;
67712;SDS011;67640;55.784;49.138;2023-02-12T16:49:42;30.90;;;8.93;;
67712;SDS011;67640;55.784;49.138;2023-02-12T16:55:00;23.55;;;8.05;;
67712;SDS011;67640;55.784;49.138;2023-02-12T17:00:07;24.82;;;8.60;;
67712;SDS011;67640;55.784;49.138;2023-02-12T17:05:27;25.73;;;9.03;;
67712;SDS011;67640;55.784;49.138;2023-02-12T17:10:46;12.47;;;3.72;;
67712;SDS011;67640;55.784;49.138;2023-02-12T17:16:05;22.30;;;8.40;;
67712;SDS011;67640;55.784;49.138;2023-02-12T17:26:49;24.72;;;9.10;;
67712;SDS011;67640;55.784;49.138;2023-02-12T17:31:54;25.43;;;9.10;;
67712;SDS011;67640;55.784;49.138;2023-02-12T17:36:59;29.15;;;8.45;;
67712;SDS011;67640;55.784;49.138;2023-02-12T17:42:18;20.83;;;6.53;;
67712;SDS011;67640;55.784;49.138;2023-02-12T17:47:36;26.23;;;9.23;;
67712;SDS011;67640;55.784;49.138;2023-02-12T17:52:41;20.52;;;7.65;;
67712;SDS011;67640;55.784;49.138;2023-02-12T17:58:00;21.73;;;8.50;;
67712;SDS011;67640;55.784;49.138;2023-02-12T18:03:05;24.47;;;8.48;;
67712;SDS011;67640;55.784;49.138;2023-02-12T18:08:24;21.40;;;8.95;;
67712;SDS011;67640;55.784;49.138;2023-02-12T18:13:45;24.72;;;8.53;;
67712;SDS011;67640;55.784;49.138;2023-02-12T18:18:50;23.70;;;7.37;;
67712;SDS011;67640;55.784;49.138;2023-02-12T18:24:09;24.45;;;7.80;;
67712;SDS011;67640;55.784;49.138;2023-02-12T18:29:30;23.57;;;8.60;;
67712;SDS011;67640;55.784;49.138;2023-02-12T18:34:49;24.45;;;7.55;;
67712;SDS011;67640;55.784;49.138;2023-02-12T18:40:08;22.85;;;7.25;;
67712;SDS011;67640;55.784;49.138;2023-02-12T18:45:13;19.60;;;7.30;;
67712;SDS011;67640;55.784;49.138;2023-02-12T18:50:31;18.50;;;6.78;;
67712;SDS011;67640;55.784;49.138;2023-02-12T18:55:36;23.42;;;7.80;;
67712;SDS011;67640;55.784;49.138;2023-02-12T19:00:55;22.87;;;6.33;;
67712;SDS011;67640;55.784;49.138;2023-02-12T19:06:02;18.90;;;7.37;;
67712;SDS011;67640;55.784;49.138;2023-02-12T19:11:09;22.52;;;8.40;;
67712;SDS011;67640;55.784;49.138;2023-02-12T19:16:28;24.60;;;8.20;;
67712;SDS011;67640;55.784;49.138;2023-02-12T19:21:47;23.10;;;7.67;;
67712;SDS011;67640;55.784;49.138;2023-02-12T19:26:52;20.57;;;7.47;;
67712;SDS011;67640;55.784;49.138;2023-02-12T19:32:11;16.13;;;6.53;;
67712;SDS011;67640;55.784;49.138;2023-02-12T19:37:16;23.12;;;7.62;;
67712;SDS011;67640;55.784;49.138;2023-02-12T19:42:35;24.77;;;9.00;;
67712;SDS011;67640;55.784;49.138;2023-02-12T19:47:54;24.25;;;8.55;;
67712;SDS011;67640;55.784;49.138;2023-02-12T19:53:20;25.52;;;8.58;;
67712;SDS011;67640;55.784;49.138;2023-02-12T19:58:44;22.70;;;8.63;;
67712;SDS011;67640;55.784;49.138;2023-02-12T20:04:03;22.17;;;8.33;;
67712;SDS011;67640;55.784;49.138;2023-02-12T20:09:22;24.80;;;7.73;;
67712;SDS011;67640;55.784;49.138;2023-02-12T20:14:42;23.95;;;7.72;;
67712;SDS011;67640;55.784;49.138;2023-02-12T20:20:01;29.82;;;8.80;;
67712;SDS011;67640;55.784;49.138;2023-02-12T20:25:06;22.83;;;8.30;;
67712;SDS011;67640;55.784;49.138;2023-02-12T20:30:12;26.05;;;9.33;;
67712;SDS011;67640;55.784;49.138;2023-02-12T20:35:31;22.77;;;9.33;;
67712;SDS011;67640;55.784;49.138;2023-02-12T20:40:36;27.67;;;8.80;;
67712;SDS011;67640;55.784;49.138;2023-02-12T20:45:41;29.55;;;10.05;;
67712;SDS011;67640;55.784;49.138;2023-02-12T20:50:46;29.07;;;9.53;;
67712;SDS011;67640;55.784;49.138;2023-02-12T21:06:50;30.30;;;8.33;;
67712;SDS011;67640;55.784;49.138;2023-02-12T21:11:56;23.23;;;7.33;;
67712;SDS011;67640;55.784;49.138;2023-02-12T21:17:02;27.37;;;8.28;;
67712;SDS011;67640;55.784;49.138;2023-02-12T21:22:21;23.27;;;8.10;;
67712;SDS011;67640;55.784;49.138;2023-02-12T21:27:40;28.40;;;8.45;;
67712;SDS011;67640;55.784;49.138;2023-02-12T21:33:05;28.27;;;8.65;;
67712;SDS011;67640;55.784;49.138;2023-02-12T21:38:09;27.60;;;8.30;;
67712;SDS011;67640;55.784;49.138;2023-02-12T21:43:14;24.52;;;8.95;;
67712;SDS011;67640;55.784;49.138;2023-02-12T21:48:19;27.33;;;9.83;;
67712;SDS011;67640;55.784;49.138;2023-02-12T21:53:38;25.80;;;9.23;;
67712;SDS011;67640;55.784;49.138;2023-02-12T21:58:58;26.35;;;8.20;;
67712;SDS011;67640;55.784;49.138;2023-02-12T22:04:04;26.43;;;8.43;;
67712;SDS011;67640;55.784;49.138;2023-02-12T22:09:23;31.17;;;9.28;;
67712;SDS011;67640;55.784;49.138;2023-02-12T22:14:28;27.40;;;9.17;;
67712;SDS011;67640;55.784;49.138;2023-02-12T22:19:33;29.70;;;9.30;;
67712;SDS011;67640;55.784;49.138;2023-02-12T22:24:52;29.48;;;9.25;;
67712;SDS011;67640;55.784;49.138;2023-02-12T22:29:57;28.70;;;9.27;;
67712;SDS011;67640;55.784;49.138;2023-02-12T22:35:16;32.93;;;10.43;;
67712;SDS011;67640;55.784;49.138;2023-02-12T22:40:33;26.52;;;9.28;;
67712;SDS011;67640;55.784;49.138;2023-02-12T22:45:41;36.30;;;10.47;;
67712;SDS011;67640;55.784;49.138;2023-02-12T22:51:06;32.05;;;10.53;;
67712;SDS011;67640;55.784;49.138;2023-02-12T22:56:21;29.82;;;10.23;;
67712;SDS011;67640;55.784;49.138;2023-02-12T23:01:41;25.43;;;8.08;;
67712;SDS011;67640;55.784;49.138;2023-02-12T23:07:00;24.12;;;8.15;;
67712;SDS011;67640;55.784;49.138;2023-02-12T23:12:05;32.63;;;9.23;;
67712;SDS011;67640;55.784;49.138;2023-02-12T23:17:10;28.52;;;8.78;;
67712;SDS011;67640;55.784;49.138;2023-02-12T23:22:15;34.70;;;10.38;;
67712;SDS011;67640;55.784;49.138;2023-02-12T23:27:34;30.88;;;10.23;;
67712;SDS011;67640;55.784;49.138;2023-02-12T23:32:53;37.80;;;11.35;;
67712;SDS011;67640;55.784;49.138;2023-02-12T23:37:58;37.27;;;10.30;;
67712;SDS011;67640;55.784;49.138;2023-02-12T23:43:04;27.98;;;8.28;;
67712;SDS011;67640;55.784;49.138;2023-02-12T23:48:09;37.67;;;10.00;;
67712;SDS011;67640;55.784;49.138;2023-02-12T23:53:14;33.85;;;10.13;;
67712;SDS011;67640;55.784;49.138;2023-02-12T23:58:32;25.95;;;8.85;;
